Time;durP1;ratioP1;P1;durP2;ratioP2;P2;SDS_P1;SDS_P2;PMS_P1;PMS_P2;Temp;Humidity;BMP_temperature;BMP_pressure;BME280_temperature;BME280_humidity;BME280_pressure;Samples;Min_cycle;Max_cycle;Signal;HPM_P1;HPM_P2
2022/09/26 00:00:47;;;;;;;6.97;6.18;;;;;;;11.88;77.45;100860.03;4989369;28;20027;-47
2022/09/26 00:03:13;;;;;;;8.85;5.90;;;;;;;11.95;77.69;100856.00;4987485;28;20041;-48
2022/09/26 00:05:39;;;;;;;7.03;5.82;;;;;;;11.95;77.35;100853.34;4988784;28;20038;-48
2022/09/26 00:08:06;;;;;;;6.80;6.10;;;;;;;12.01;77.31;100849.41;4987112;28;20101;-49
2022/09/26 00:10:34;;;;;;;7.35;6.05;;;;;;;11.94;77.76;100848.97;4996043;28;20067;-47
2022/09/26 00:13:00;;;;;;;9.40;6.68;;;;;;;11.95;77.90;100845.34;4997434;28;20042;-48
2022/09/26 00:15:26;;;;;;;8.00;6.10;;;;;;;12.03;77.50;100845.69;4970729;28;20118;-47
2022/09/26 00:17:51;;;;;;;9.85;6.25;;;;;;;11.95;77.69;100840.03;4989240;28;20117;-46
2022/09/26 00:20:17;;;;;;;14.27;6.20;;;;;;;11.87;77.91;100822.84;4988870;28;20034;-47
2022/09/26 00:22:45;;;;;;;6.22;5.63;;;;;;;11.93;77.72;100815.28;4979166;28;20038;-47
2022/09/26 00:25:13;;;;;;;8.45;6.03;;;;;;;11.93;78.04;100823.28;4989108;28;20105;-46
2022/09/26 00:27:38;;;;;;;8.15;5.65;;;;;;;11.84;78.23;100818.53;4979374;28;20106;-49
2022/09/26 00:30:05;;;;;;;7.53;6.30;;;;;;;11.85;78.42;100814.94;4943387;28;20041;-47
2022/09/26 00:32:31;;;;;;;7.43;6.53;;;;;;;11.88;78.33;100813.88;4984920;28;20129;-51
2022/09/26 00:34:57;;;;;;;7.22;6.00;;;;;;;11.80;78.51;100801.94;4994424;28;20554;-50
2022/09/26 00:37:22;;;;;;;10.15;6.85;;;;;;;11.83;78.54;100798.19;4981083;28;20062;-50
2022/09/26 00:39:47;;;;;;;10.48;6.05;;;;;;;11.85;78.53;100800.75;4985448;28;20476;-46
2022/09/26 00:42:14;;;;;;;16.13;6.53;;;;;;;11.79;78.64;100807.34;4988338;28;20077;-46
2022/09/26 00:44:49;;;;;;;7.63;6.20;;;;;;;11.83;78.56;100798.19;4987817;28;20034;-47
2022/09/26 00:47:29;;;;;;;8.73;6.40;;;;;;;11.85;78.63;100793.63;4988397;28;20514;-47
2022/09/26 00:50:01;;;;;;;7.05;6.35;;;;;;;11.82;78.51;100793.81;4987631;28;20022;-49
2022/09/26 00:52:41;;;;;;;6.93;6.22;;;;;;;11.92;78.38;100794.91;4991221;28;20042;-48
2022/09/26 00:55:12;;;;;;;8.30;6.10;;;;;;;11.92;78.72;100786.94;4977482;28;20538;-48
2022/09/26 00:57:44;;;;;;;7.45;6.28;;;;;;;11.99;78.05;100774.88;4981348;28;20552;-48
2022/09/26 01:00:13;;;;;;;8.98;5.65;;;;;;;11.91;78.36;100771.91;4986877;28;20079;-47
2022/09/26 01:02:39;;;;;;;6.85;5.97;;;;;;;11.97;78.34;100773.25;4973707;28;20030;-49
2022/09/26 01:05:07;;;;;;;8.48;6.07;;;;;;;11.91;78.47;100758.59;4991464;28;20038;-47
2022/09/26 01:07:36;;;;;;;13.18;5.53;;;;;;;11.86;78.70;100752.72;4990904;28;20042;-46
2022/09/26 01:10:04;;;;;;;7.32;5.43;;;;;;;12.00;78.32;100752.59;4994645;28;20036;-47
2022/09/26 01:12:29;;;;;;;8.57;5.13;;;;;;;11.94;78.17;100744.16;5005898;28;20473;-47
2022/09/26 01:14:56;;;;;;;7.78;5.85;;;;;;;12.02;77.81;100748.00;4973322;28;20066;-47
2022/09/26 01:17:23;;;;;;;8.98;5.72;;;;;;;12.06;78.23;100735.31;4997485;28;20054;-47
2022/09/26 01:20:01;;;;;;;6.70;5.28;;;;;;;11.98;78.37;100733.19;5007827;28;20022;-48
2022/09/26 01:22:45;;;;;;;8.15;5.32;;;;;;;11.98;77.92;100730.53;4976826;28;20035;-47
2022/09/26 01:25:14;;;;;;;10.95;5.97;;;;;;;11.89;78.45;100725.84;4976260;28;20035;-47
2022/09/26 01:28:01;;;;;;;6.70;5.20;;;;;;;11.90;77.96;100716.03;4976325;28;20037;-48
2022/09/26 01:30:43;;;;;;;7.50;5.65;;;;;;;11.83;78.92;100718.25;4981524;28;20037;-48
2022/09/26 01:33:30;;;;;;;9.55;5.63;;;;;;;11.92;78.29;100706.13;4982107;28;20042;-48
2022/09/26 01:36:10;;;;;;;9.30;5.05;;;;;;;11.90;78.38;100692.03;4978353;28;20023;-48
2022/09/26 01:38:52;;;;;;;8.35;5.65;;;;;;;11.86;78.24;100682.56;4991156;28;20034;-47
2022/09/26 01:41:47;;;;;;;7.88;5.22;;;;;;;11.85;78.63;100681.69;4991540;28;20026;-48
2022/09/26 01:44:19;;;;;;;7.05;5.45;;;;;;;11.91;78.19;100678.63;4994252;28;20045;-46
2022/09/26 01:46:53;;;;;;;10.70;5.07;;;;;;;11.98;77.93;100676.38;4990927;28;20680;-46
2022/09/26 01:49:32;;;;;;;6.13;4.75;;;;;;;11.94;77.62;100666.88;4975298;28;20485;-47
2022/09/26 01:52:26;;;;;;;7.10;5.18;;;;;;;11.94;77.63;100659.75;4997086;28;20439;-49
2022/09/26 01:55:05;;;;;;;8.95;5.25;;;;;;;11.87;77.78;100661.13;4990274;28;20097;-48
2022/09/26 01:57:40;;;;;;;5.80;4.57;;;;;;;11.78;77.41;100641.28;4989450;28;20026;-47
2022/09/26 02:00:07;;;;;;;8.02;5.10;;;;;;;11.78;77.23;100646.63;4975013;28;20113;-48
2022/09/26 02:02:42;;;;;;;13.70;5.03;;;;;;;11.77;77.40;100638.75;4987331;28;20030;-47
2022/09/26 02:05:13;;;;;;;7.35;4.63;;;;;;;11.77;77.29;100634.28;4962169;28;20083;-47
2022/09/26 02:07:44;;;;;;;6.68;4.75;;;;;;;11.73;77.48;100627.44;4985766;28;20047;-48
2022/09/26 02:10:16;;;;;;;12.45;4.85;;;;;;;11.71;76.77;100618.72;4973667;28;20477;-48
2022/09/26 02:12:47;;;;;;;6.15;4.57;;;;;;;11.66;77.00;100620.84;4990150;28;20156;-47
2022/09/26 02:15:19;;;;;;;8.10;4.13;;;;;;;11.67;76.67;100617.22;4990018;28;20038;-46
2022/09/26 02:17:53;;;;;;;6.80;4.40;;;;;;;11.66;76.36;100614.69;4989719;28;20030;-47
2022/09/26 02:20:28;;;;;;;7.20;4.07;;;;;;;11.68;76.40;100605.63;4989726;28;20431;-47
2022/09/26 02:22:56;;;;;;;7.63;4.68;;;;;;;11.59;76.15;100601.81;4974006;28;20026;-48
2022/09/26 02:25:29;;;;;;;8.80;4.28;;;;;;;11.59;76.85;100598.28;4989180;28;20435;-46
2022/09/26 02:27:54;;;;;;;9.18;4.68;;;;;;;11.62;76.81;100598.06;4978511;28;20030;-47
2022/09/26 02:30:20;;;;;;;7.07;4.72;;;;;;;11.58;76.66;100589.44;4965348;28;20554;-48
2022/09/26 02:32:46;;;;;;;8.20;4.07;;;;;;;11.60;76.94;100584.84;4957465;28;20038;-48
2022/09/26 02:37:56;;;;;;;7.45;5.10;;;;;;;11.60;77.17;100578.69;4989799;28;20073;-46
2022/09/26 02:40:35;;;;;;;6.53;4.35;;;;;;;11.58;77.24;100575.25;4969646;28;20042;-47
2022/09/26 02:43:31;;;;;;;9.95;4.68;;;;;;;11.64;76.88;100571.31;4983916;28;20030;-48
2022/09/26 02:46:42;;;;;;;5.85;4.05;;;;;;;11.51;77.47;100572.19;4990479;28;20046;-46
2022/09/26 02:49:15;;;;;;;6.25;4.18;;;;;;;11.55;77.15;100571.00;4977032;28;20030;-46
2022/09/26 02:52:00;;;;;;;11.98;4.82;;;;;;;11.53;77.07;100567.63;4976102;28;20031;-50
2022/09/26 02:54:34;;;;;;;6.38;4.28;;;;;;;11.53;76.55;100559.63;4973473;28;20058;-46
2022/09/26 02:57:02;;;;;;;7.50;4.20;;;;;;;11.60;77.00;100549.38;4973458;28;20076;-48
2022/09/26 02:59:34;;;;;;;9.13;4.80;;;;;;;11.53;76.58;100546.31;4989610;28;20060;-47
2022/09/26 03:02:10;;;;;;;6.43;3.83;;;;;;;11.55;76.36;100546.19;4989254;28;20052;-47
2022/09/26 03:04:52;;;;;;;6.85;4.07;;;;;;;11.52;76.02;100541.09;4987021;28;20069;-46
2022/09/26 03:07:30;;;;;;;7.35;4.15;;;;;;;11.60;76.17;100539.56;4973736;28;20101;-47
2022/09/26 03:09:59;;;;;;;7.95;4.13;;;;;;;11.56;75.94;100537.25;4986021;28;20091;-46
2022/09/26 03:12:28;;;;;;;8.05;4.13;;;;;;;11.49;75.54;100531.50;4989260;28;20034;-46
2022/09/26 03:14:55;;;;;;;6.68;3.60;;;;;;;11.53;75.78;100530.34;4990668;28;20037;-46
2022/09/26 03:17:24;;;;;;;9.40;4.00;;;;;;;11.49;74.77;100518.19;4981199;28;20031;-47
2022/09/26 03:19:58;;;;;;;6.10;4.00;;;;;;;11.57;75.08;100521.16;4969929;28;20027;-47
2022/09/26 03:22:24;;;;;;;6.03;4.00;;;;;;;11.64;74.41;100512.72;4985705;28;20493;-48
2022/09/26 03:24:52;;;;;;;10.30;4.38;;;;;;;11.56;75.13;100516.78;4964163;28;20065;-48
2022/09/26 03:27:19;;;;;;;6.00;4.00;;;;;;;11.52;74.74;100512.63;4963130;28;20027;-47
2022/09/26 03:29:44;;;;;;;6.53;4.05;;;;;;;11.50;75.06;100508.38;4970440;28;20588;-49
2022/09/26 03:32:10;;;;;;;8.50;3.83;;;;;;;11.49;74.57;100507.53;4971082;28;20042;-47
2022/09/26 03:34:38;;;;;;;6.97;3.90;;;;;;;11.51;74.25;100500.28;4990815;28;20035;-48
2022/09/26 03:37:05;;;;;;;7.95;4.03;;;;;;;11.48;74.49;100497.00;4968662;28;20034;-47
2022/09/26 03:39:31;;;;;;;5.90;3.67;;;;;;;11.49;74.64;100488.88;4974858;28;20026;-47
2022/09/26 03:41:57;;;;;;;9.57;3.75;;;;;;;11.52;74.66;100478.00;4952580;28;20481;-47
2022/09/26 03:44:24;;;;;;;5.07;3.90;;;;;;;11.51;74.11;100481.66;4970217;28;20030;-46
2022/09/26 03:46:51;;;;;;;8.23;3.83;;;;;;;11.50;74.78;100466.63;4987333;28;20057;-48
2022/09/26 03:49:16;;;;;;;5.80;4.00;;;;;;;11.44;75.15;100466.22;4951180;28;20031;-47
2022/09/26 03:51:43;;;;;;;7.53;4.10;;;;;;;11.45;75.18;100476.75;4970380;28;20497;-47
2022/09/26 03:54:12;;;;;;;7.68;3.92;;;;;;;11.37;76.85;100464.00;4982563;28;20038;-48
2022/09/26 03:56:40;;;;;;;6.20;3.80;;;;;;;11.40;76.74;100460.25;4973683;28;20404;-46
2022/09/26 03:59:05;;;;;;;9.57;4.32;;;;;;;11.45;76.79;100454.63;4989241;28;20496;-47
2022/09/26 04:01:31;;;;;;;9.40;4.68;;;;;;;11.41;76.19;100445.97;5003710;28;20035;-49
2022/09/26 04:03:57;;;;;;;7.45;3.85;;;;;;;11.38;77.16;100440.88;4988873;28;20066;-46
2022/09/26 04:06:23;;;;;;;10.15;3.58;;;;;;;11.37;77.25;100442.69;4972292;28;20043;-46
2022/09/26 04:08:51;;;;;;;9.80;3.92;;;;;;;11.30;77.09;100430.81;4969543;28;20050;-47
2022/09/26 04:11:23;;;;;;;9.20;3.85;;;;;;;11.32;78.44;100441.31;4999884;28;20420;-48
2022/09/26 04:13:51;;;;;;;9.15;4.32;;;;;;;11.32;78.70;100428.00;4988746;28;20034;-47
2022/09/26 04:16:18;;;;;;;8.15;3.70;;;;;;;11.29;78.38;100413.13;4989327;28;20030;-46
2022/09/26 04:18:44;;;;;;;9.05;4.10;;;;;;;11.26;79.27;100399.19;4978079;28;20044;-47
2022/09/26 04:21:14;;;;;;;8.27;3.85;;;;;;;11.25;79.08;100402.81;4988524;28;20031;-47
2022/09/26 04:23:42;;;;;;;8.90;3.97;;;;;;;11.24;79.68;100398.47;4989157;28;20111;-46
2022/09/26 04:26:14;;;;;;;7.72;3.83;;;;;;;11.00;79.57;100362.03;4990212;28;20030;-47
2022/09/26 04:28:41;;;;;;;9.18;4.00;;;;;;;11.13;78.77;100393.91;4954487;28;20129;-49
2022/09/26 04:31:09;;;;;;;13.07;4.43;;;;;;;11.12;79.03;100381.56;4973314;28;20063;-46
2022/09/26 04:33:35;;;;;;;10.52;3.83;;;;;;;11.11;78.87;100386.03;4947033;28;20035;-46
2022/09/26 04:36:03;;;;;;;10.13;4.10;;;;;;;11.04;79.20;100379.47;4977544;28;20408;-46
2022/09/26 04:38:32;;;;;;;6.40;4.35;;;;;;;11.04;79.10;100375.97;4989847;28;20038;-47
2022/09/26 04:41:15;;;;;;;9.95;4.15;;;;;;;11.12;78.98;100371.78;4989908;28;20034;-47
2022/09/26 04:43:41;;;;;;;5.72;3.60;;;;;;;11.01;78.78;100350.41;4983611;28;20080;-47
2022/09/26 04:46:11;;;;;;;5.32;3.78;;;;;;;11.06;79.64;100350.94;4984019;28;20035;-46
2022/09/26 04:48:39;;;;;;;7.07;4.25;;;;;;;11.04;78.56;100334.22;4973763;28;20027;-46
2022/09/26 04:51:12;;;;;;;7.85;4.00;;;;;;;10.97;78.89;100314.34;4955389;28;20038;-48
2022/09/26 04:53:39;;;;;;;7.45;3.60;;;;;;;11.03;78.88;100326.34;4978898;28;20366;-47
2022/09/26 04:56:05;;;;;;;11.00;4.68;;;;;;;10.96;79.00;100317.97;4991543;28;20033;-48
2022/09/26 04:58:31;;;;;;;7.30;4.47;;;;;;;11.01;79.38;100323.81;4972105;28;20026;-48
2022/09/26 05:01:02;;;;;;;8.80;3.83;;;;;;;11.05;78.91;100311.13;4991408;28;20144;-46
2022/09/26 05:03:28;;;;;;;5.43;3.67;;;;;;;11.00;78.99;100306.16;4990783;28;20041;-47
2022/09/26 05:05:54;;;;;;;7.57;4.35;;;;;;;10.92;79.32;100303.19;4991422;28;20030;-47
2022/09/26 05:08:19;;;;;;;8.35;4.25;;;;;;;10.92;79.59;100303.19;4963513;28;20108;-47
2022/09/26 05:10:52;;;;;;;9.35;3.80;;;;;;;10.94;79.31;100295.09;4979134;28;20029;-48
2022/09/26 05:13:17;;;;;;;11.57;4.25;;;;;;;10.87;79.62;100292.88;4982990;28;20167;-47
2022/09/26 05:15:43;;;;;;;8.25;3.70;;;;;;;10.83;80.73;100267.47;4974275;28;20050;-48
2022/09/26 05:18:10;;;;;;;8.55;4.13;;;;;;;10.87;80.51;100252.97;4989965;28;20377;-47
2022/09/26 05:20:37;;;;;;;9.77;4.82;;;;;;;10.86;81.01;100255.75;4991422;28;20054;-46
2022/09/26 05:23:04;;;;;;;9.25;4.43;;;;;;;10.84;80.96;100247.88;4991117;28;20030;-48
2022/09/26 05:28:20;;;;;;;8.93;5.05;;;;;;;10.84;81.93;100260.34;4988165;28;20090;-50
2022/09/26 05:30:45;;;;;;;9.00;4.57;;;;;;;10.85;81.28;100241.63;4972126;28;20392;-47
2022/09/26 05:33:12;;;;;;;11.23;4.80;;;;;;;10.82;82.03;100243.63;4972048;28;20507;-46
2022/09/26 05:35:38;;;;;;;10.55;4.88;;;;;;;10.81;81.43;100248.09;4939031;28;20034;-47
2022/09/26 05:38:04;;;;;;;11.82;5.20;;;;;;;10.84;81.73;100245.22;4971793;28;20023;-47
2022/09/26 05:43:14;;;;;;;10.80;4.75;;;;;;;10.83;81.77;100248.84;4990576;28;20045;-47
2022/09/26 05:45:40;;;;;;;11.05;5.00;;;;;;;10.88;81.23;100236.06;4985777;28;20049;-46
2022/09/26 05:48:06;;;;;;;8.77;4.72;;;;;;;10.87;80.48;100244.16;4988330;28;20084;-46
2022/09/26 05:50:32;;;;;;;9.85;4.97;;;;;;;10.83;81.15;100232.88;4990028;28;20031;-49
2022/09/26 05:53:01;;;;;;;11.63;5.43;;;;;;;10.82;81.40;100238.31;4990586;28;20034;-48
2022/09/26 05:55:28;;;;;;;6.57;4.57;;;;;;;10.83;81.33;100238.22;4989216;28;20026;-48
2022/09/26 05:57:58;;;;;;;12.40;5.07;;;;;;;10.87;81.33;100230.84;4990450;28;20022;-48
2022/09/26 06:00:26;;;;;;;11.30;5.50;;;;;;;10.87;82.09;100230.84;4973367;28;20595;-49
2022/09/26 06:03:05;;;;;;;8.95;5.03;;;;;;;10.87;82.43;100233.50;4990476;28;20030;-49
2022/09/26 06:05:48;;;;;;;6.97;4.90;;;;;;;10.86;82.42;100237.13;4928570;28;20035;-51
2022/09/26 06:08:14;;;;;;;14.07;5.38;;;;;;;10.85;82.23;100220.34;4913815;28;20066;-51
2022/09/26 06:10:42;;;;;;;8.00;4.90;;;;;;;10.82;82.82;100206.38;4928176;28;20379;-48
2022/09/26 06:13:07;;;;;;;8.98;4.97;;;;;;;10.85;82.44;100200.84;4917990;28;20040;-47
2022/09/26 06:15:33;;;;;;;13.80;4.95;;;;;;;10.82;82.75;100201.06;4930949;28;20040;-47
2022/09/26 06:18:03;;;;;;;8.48;4.95;;;;;;;10.81;82.51;100186.91;4924138;28;20137;-46
2022/09/26 06:20:29;;;;;;;9.25;4.50;;;;;;;10.80;81.63;100176.41;4928300;28;20075;-46
2022/09/26 06:22:54;;;;;;;6.30;4.43;;;;;;;10.81;82.41;100175.44;4918083;28;20028;-47
2022/09/26 06:25:21;;;;;;;10.23;4.53;;;;;;;10.83;82.15;100173.53;4920010;28;20525;-48
2022/09/26 06:27:47;;;;;;;7.55;4.97;;;;;;;10.82;81.73;100161.16;4928447;28;20514;-47
2022/09/26 06:30:13;;;;;;;6.35;4.30;;;;;;;10.79;81.69;100146.28;4917015;28;20575;-50
2022/09/26 06:32:38;;;;;;;11.02;4.40;;;;;;;10.85;82.01;100147.63;4914349;28;20040;-50
2022/09/26 06:35:07;;;;;;;7.53;4.07;;;;;;;10.84;81.98;100133.50;4929887;28;20032;-48
2022/09/26 06:37:34;;;;;;;9.57;4.20;;;;;;;10.84;81.75;100138.81;4980005;28;20038;-47
2022/09/26 06:40:00;;;;;;;6.03;3.83;;;;;;;10.87;81.40;100137.72;4997616;28;20034;-47
2022/09/26 06:42:26;;;;;;;8.93;4.80;;;;;;;10.89;81.63;100131.34;4969494;28;20062;-48
2022/09/26 06:44:52;;;;;;;10.63;4.43;;;;;;;10.90;81.52;100118.88;4990101;28;20026;-46
2022/09/26 06:47:18;;;;;;;8.27;4.07;;;;;;;10.91;81.04;100118.78;4984293;28;20165;-47
2022/09/26 06:49:47;;;;;;;4.85;3.83;;;;;;;10.94;80.82;100104.38;4989636;28;20030;-46
2022/09/26 06:52:13;;;;;;;5.80;3.58;;;;;;;10.90;81.26;100089.63;4972863;28;20034;-46
2022/09/26 06:54:40;;;;;;;6.10;4.00;;;;;;;10.96;81.73;100096.28;4989877;28;20132;-46
2022/09/26 06:57:05;;;;;;;7.82;3.83;;;;;;;10.99;81.71;100083.59;5005591;28;20114;-46
2022/09/26 06:59:30;;;;;;;7.30;3.75;;;;;;;11.00;81.35;100082.63;4988416;28;20094;-46
2022/09/26 07:01:56;;;;;;;10.20;4.07;;;;;;;11.00;80.05;100087.97;4986212;28;20030;-47
2022/09/26 07:04:26;;;;;;;4.80;3.17;;;;;;;11.07;81.46;100088.31;4984499;28;20038;-46
2022/09/26 07:06:51;;;;;;;7.85;4.03;;;;;;;11.11;80.91;100081.78;4969033;28;20052;-46
2022/09/26 07:09:16;;;;;;;8.48;3.65;;;;;;;11.11;80.35;100065.81;4977973;28;20038;-46
2022/09/26 07:11:45;;;;;;;5.43;3.50;;;;;;;11.14;80.02;100071.75;4989521;28;20026;-46
2022/09/26 07:14:13;;;;;;;6.88;3.70;;;;;;;11.06;79.94;100050.22;4988173;28;20037;-46
2022/09/26 07:16:38;;;;;;;4.53;3.47;;;;;;;11.13;80.46;100064.72;4988511;28;20068;-47
2022/09/26 07:19:04;;;;;;;6.13;3.35;;;;;;;11.16;80.24;100046.84;4968088;28;20122;-47
2022/09/26 07:21:29;;;;;;;7.72;3.95;;;;;;;11.16;80.03;100042.34;4970460;28;20073;-46
2022/09/26 07:23:56;;;;;;;7.57;3.30;;;;;;;11.13;80.54;100038.13;4983894;28;20112;-46
2022/09/26 07:26:21;;;;;;;8.00;3.60;;;;;;;11.18;80.44;100044.88;4988967;28;20022;-46
2022/09/26 07:28:48;;;;;;;7.35;3.50;;;;;;;11.18;80.27;100037.78;4986164;28;20492;-46
2022/09/26 07:31:14;;;;;;;8.60;3.50;;;;;;;11.17;80.02;100046.69;4970239;28;20133;-46
2022/09/26 07:33:40;;;;;;;9.38;3.40;;;;;;;11.19;80.14;100041.28;4970996;28;20114;-48
2022/09/26 07:36:07;;;;;;;5.90;3.08;;;;;;;11.25;79.83;100040.78;4982149;28;20509;-46
2022/09/26 07:38:32;;;;;;;6.50;4.03;;;;;;;11.24;80.11;100042.63;4981930;28;20026;-47
2022/09/26 07:40:59;;;;;;;5.85;3.40;;;;;;;11.25;80.46;100032.81;4988540;28;20450;-46
2022/09/26 07:43:25;;;;;;;5.90;3.53;;;;;;;11.31;80.25;100038.47;4979849;28;20026;-47
2022/09/26 07:51:26;;;;;;;7.43;3.70;;;;;;;11.26;81.01;100029.16;4989640;28;20131;-47
2022/09/26 07:53:51;;;;;;;5.22;3.30;;;;;;;11.31;80.76;100027.00;5006717;28;20130;-49
2022/09/26 07:56:17;;;;;;;7.75;3.50;;;;;;;11.35;80.62;100034.63;5008841;28;20092;-48
2022/09/26 07:58:43;;;;;;;7.97;3.67;;;;;;;11.30;80.33;100030.63;4991032;28;20029;-46
2022/09/26 08:01:13;;;;;;;4.10;3.10;;;;;;;11.36;80.96;100030.97;5009452;28;20093;-49
2022/09/26 08:03:40;;;;;;;9.73;4.00;;;;;;;11.37;80.71;100006.03;4993472;28;20113;-50
2022/09/26 08:06:07;;;;;;;8.63;3.80;;;;;;;11.47;80.79;100006.19;4975654;28;20034;-47
2022/09/26 08:08:36;;;;;;;6.25;3.63;;;;;;;11.48;80.63;100007.03;5000673;28;20066;-47
2022/09/26 08:11:04;;;;;;;8.75;3.47;;;;;;;11.45;80.60;100002.78;5012334;28;20044;-47
2022/09/26 08:13:31;;;;;;;4.88;3.60;;;;;;;11.47;80.70;99997.31;5012650;28;20037;-50
2022/09/26 08:16:02;;;;;;;5.20;3.40;;;;;;;11.50;80.69;99994.41;5012163;28;20022;-48
2022/09/26 08:18:28;;;;;;;8.27;3.78;;;;;;;11.48;80.58;99988.38;4992547;28;20087;-46
2022/09/26 08:20:56;;;;;;;4.20;3.22;;;;;;;11.47;80.78;99995.53;5012024;28;20038;-48
2022/09/26 08:23:21;;;;;;;8.65;4.35;;;;;;;11.46;81.28;99985.81;4994893;28;20041;-46
2022/09/26 08:25:46;;;;;;;8.50;3.80;;;;;;;11.51;82.44;99990.78;4994448;28;20087;-47
2022/09/26 08:28:15;;;;;;;8.55;3.50;;;;;;;11.51;81.28;100004.94;4994554;28;20034;-46
2022/09/26 08:30:43;;;;;;;5.97;3.60;;;;;;;11.48;81.26;99999.03;4975720;28;20454;-48
2022/09/26 08:33:11;;;;;;;7.63;3.70;;;;;;;11.48;81.01;99988.38;4974934;28;20034;-51
2022/09/26 08:35:40;;;;;;;7.07;3.72;;;;;;;11.47;81.59;99984.88;4991385;28;20022;-52
2022/09/26 08:38:07;;;;;;;6.93;3.60;;;;;;;11.53;81.04;99981.72;4988702;28;20087;-49
2022/09/26 08:40:45;;;;;;;8.65;4.55;;;;;;;11.53;82.15;99989.69;5002053;28;20046;-50
2022/09/26 08:43:41;;;;;;;5.20;3.65;;;;;;;11.55;81.42;99976.25;4972757;28;20347;-49
2022/09/26 08:49:16;;;;;;;6.97;3.58;;;;;;;11.60;81.90;99977.56;4988068;28;20113;-48
2022/09/26 08:51:47;;;;;;;6.22;4.10;;;;;;;11.63;81.05;99979.13;4991995;28;20470;-48
2022/09/26 08:54:25;;;;;;;4.53;3.38;;;;;;;11.66;81.47;99970.06;4991278;28;20025;-49
2022/09/26 08:56:56;;;;;;;6.68;3.42;;;;;;;11.67;81.45;99966.41;4989638;28;20032;-51
2022/09/26 08:59:32;;;;;;;8.68;3.60;;;;;;;11.70;81.37;99967.00;4987373;28;20028;-48
2022/09/26 09:02:03;;;;;;;7.43;3.50;;;;;;;11.68;81.03;99966.31;4987263;28;20033;-48
2022/09/26 09:05:00;;;;;;;8.13;4.10;;;;;;;11.76;81.15;99955.00;4991489;28;20030;-47
2022/09/26 09:07:25;;;;;;;7.72;3.45;;;;;;;11.76;81.70;99960.31;4981861;28;20100;-51
2022/09/26 09:09:55;;;;;;;7.95;3.60;;;;;;;11.81;80.89;99955.47;4990020;28;20031;-46
2022/09/26 09:12:30;;;;;;;7.45;3.75;;;;;;;11.77;81.76;99951.38;4991404;28;20496;-46
2022/09/26 09:15:18;;;;;;;9.38;4.18;;;;;;;11.91;82.70;99951.13;4983167;28;20023;-47
2022/09/26 09:18:02;;;;;;;7.72;3.67;;;;;;;11.96;82.66;99940.91;4972338;28;20238;-49
2022/09/26 09:20:51;;;;;;;9.43;4.38;;;;;;;12.00;83.19;99954.81;4976543;28;20029;-47
2022/09/26 09:23:26;;;;;;;12.13;4.00;;;;;;;12.03;83.34;99941.25;4991636;28;20026;-47
2022/09/26 09:26:29;;;;;;;13.38;4.47;;;;;;;12.07;83.96;99937.34;4992569;28;20075;-50
2022/09/26 09:29:01;;;;;;;7.35;3.90;;;;;;;12.06;86.00;99925.00;4972142;28;20035;-47
2022/09/26 09:31:32;;;;;;;6.10;3.90;;;;;;;11.98;85.86;99916.81;4954893;28;20027;-46
2022/09/26 09:34:02;;;;;;;8.60;3.92;;;;;;;11.86;85.87;99913.34;4971277;28;20022;-46
2022/09/26 09:36:39;;;;;;;8.32;3.90;;;;;;;11.90;86.97;99920.09;4985918;28;20030;-47
2022/09/26 09:39:09;;;;;;;8.32;4.05;;;;;;;11.84;87.67;99907.25;5001541;28;20025;-47
2022/09/26 09:41:42;;;;;;;;;;;;;;;11.97;85.80;99910.63;5011568;28;20026;-47
2022/09/26 09:44:49;;;;;;;10.32;4.00;;;;;;;11.85;87.27;99905.44;5010855;28;19913;-47
2022/09/26 09:47:17;;;;;;;8.15;4.10;;;;;;;11.82;89.20;99888.75;4911956;28;20042;-49
2022/09/26 09:49:45;;;;;;;10.68;4.05;;;;;;;11.82;88.92;99898.53;4977420;28;20070;-47
2022/09/26 09:52:22;;;;;;;7.28;3.67;;;;;;;11.83;88.99;99886.94;4991121;28;20030;-48
2022/09/26 09:54:47;;;;;;;7.68;4.35;;;;;;;11.74;89.56;99875.22;4991014;28;20025;-46
2022/09/26 09:57:27;;;;;;;9.10;4.28;;;;;;;11.75;90.22;99876.91;4973630;28;20128;-48
2022/09/26 10:00:01;;;;;;;6.22;4.20;;;;;;;11.73;90.00;99881.50;4991904;28;20465;-46
2022/09/26 10:02:45;;;;;;;8.70;4.38;;;;;;;11.76;90.38;99875.06;4990831;28;20026;-46
2022/09/26 10:05:14;;;;;;;8.57;4.35;;;;;;;11.75;90.77;99857.41;4972821;28;20035;-48
2022/09/26 10:07:40;;;;;;;7.47;4.18;;;;;;;11.75;91.17;99855.59;4990889;28;20050;-47
2022/09/26 10:10:13;;;;;;;7.93;4.15;;;;;;;11.80;91.30;99857.88;4974353;28;20068;-47
2022/09/26 10:12:42;;;;;;;7.72;4.55;;;;;;;11.82;91.30;99845.25;5006082;28;20034;-49
2022/09/26 10:15:18;;;;;;;9.55;5.00;;;;;;;11.88;92.51;99846.59;4992993;28;20030;-47
2022/09/26 10:18:02;;;;;;;7.35;4.10;;;;;;;11.92;91.77;99845.38;5010061;28;20468;-47
2022/09/26 10:20:41;;;;;;;11.10;4.45;;;;;;;11.91;90.50;99841.88;5009766;28;20033;-47
2022/09/26 10:23:22;;;;;;;11.13;4.47;;;;;;;11.92;91.87;99837.38;4990116;28;20121;-48
2022/09/26 10:25:49;;;;;;;7.10;4.90;;;;;;;11.89;90.62;99830.50;4992903;28;20034;-47
2022/09/26 10:28:28;;;;;;;7.50;4.05;;;;;;;11.84;90.74;99830.00;5010242;28;20115;-47
2022/09/26 10:31:02;;;;;;;9.32;4.00;;;;;;;11.79;90.71;99833.06;4993589;28;20041;-47
2022/09/26 10:33:33;;;;;;;14.60;4.55;;;;;;;11.72;91.42;99831.03;4998123;28;20507;-47
2022/09/26 10:36:07;;;;;;;6.93;4.28;;;;;;;11.67;92.80;99811.91;4992553;28;20036;-48
2022/09/26 10:40:43;;;;;;;7.38;4.47;;;;;;;11.68;93.04;99819.81;4992251;28;20029;-46
2022/09/26 10:41:23;;;;;;;7.80;4.65;;;;;;;11.73;92.99;99814.06;4995058;28;20126;-47
2022/09/26 10:43:54;;;;;;;;;;;;;;;11.82;91.36;99795.50;5002313;28;20362;-57
2022/09/26 10:46:22;;;;;;;8.32;4.55;;;;;;;11.66;91.88;99808.41;4989858;28;19953;-47
2022/09/26 10:48:55;;;;;;;11.50;4.93;;;;;;;11.69;92.15;99810.81;4989574;28;20037;-46
2022/09/26 10:51:33;;;;;;;8.23;4.22;;;;;;;11.69;92.66;99815.31;5009969;28;20118;-47
2022/09/26 10:54:13;;;;;;;10.85;5.10;;;;;;;11.66;92.85;99802.25;5009575;28;20495;-46
2022/09/26 10:56:46;;;;;;;10.52;4.60;;;;;;;11.65;93.58;99792.56;5009725;28;20029;-46
2022/09/26 10:59:14;;;;;;;12.82;5.03;;;;;;;11.62;93.23;99787.50;4974525;28;20022;-48
2022/09/26 11:01:44;;;;;;;9.90;4.68;;;;;;;11.70;92.94;99796.53;4990945;28;20033;-46
2022/09/26 11:07:29;;;;;;;8.15;4.35;;;;;;;11.71;93.97;99792.91;4983667;28;20063;-48
2022/09/26 11:10:00;;;;;;;9.10;4.38;;;;;;;11.68;94.87;99789.66;5009502;28;20049;-46
2022/09/26 11:12:28;;;;;;;14.57;4.80;;;;;;;11.72;95.25;99788.41;5009482;28;20034;-46
2022/09/26 11:14:59;;;;;;;8.23;4.40;;;;;;;11.73;94.96;99780.28;5009287;28;20110;-47
2022/09/26 11:17:51;;;;;;;7.68;5.05;;;;;;;11.76;95.10;99782.69;5004117;28;20026;-47
2022/09/26 11:20:49;;;;;;;8.02;4.70;;;;;;;11.79;93.94;99762.94;4989064;28;20165;-49
2022/09/26 11:23:33;;;;;;;10.18;4.47;;;;;;;11.68;95.85;99768.34;4972317;28;20030;-46
2022/09/26 11:26:07;;;;;;;8.35;4.97;;;;;;;11.64;95.13;99780.22;4989837;28;20041;-48
2022/09/26 11:28:43;;;;;;;9.07;4.50;;;;;;;11.54;95.82;99759.69;4991484;28;20034;-48
2022/09/26 11:31:20;;;;;;;9.32;4.82;;;;;;;11.65;96.29;99773.91;4972112;28;20599;-47
2022/09/26 11:33:45;;;;;;;8.02;5.43;;;;;;;11.64;95.79;99769.56;4971645;28;20034;-47
2022/09/26 11:36:30;;;;;;;6.97;4.97;;;;;;;11.61;97.06;99757.34;4972348;28;20034;-47
2022/09/26 11:39:10;;;;;;;9.55;4.43;;;;;;;11.59;97.14;99760.16;4994661;28;20093;-47
2022/09/26 11:41:45;;;;;;;8.30;4.80;;;;;;;11.62;97.33;99756.41;4992577;28;20502;-47
2022/09/26 11:44:39;;;;;;;8.23;5.00;;;;;;;11.63;97.11;99760.75;5008675;28;20046;-47
2022/09/26 11:47:41;;;;;;;8.43;4.60;;;;;;;11.65;97.11;99755.28;5005866;28;20030;-47
2022/09/26 11:50:20;;;;;;;8.70;4.70;;;;;;;11.68;96.80;99769.19;4972249;28;20034;-49
2022/09/26 11:52:59;;;;;;;6.93;3.80;;;;;;;11.68;96.23;99741.72;4971937;28;20117;-48
2022/09/26 11:56:02;;;;;;;10.38;4.70;;;;;;;11.77;96.31;99756.91;4987891;28;20152;-48
2022/09/26 11:58:44;;;;;;;11.00;4.30;;;;;;;11.76;96.95;99753.38;4988836;28;20470;-47
2022/09/26 12:01:15;;;;;;;6.38;4.68;;;;;;;11.67;97.30;99746.19;4984353;28;20117;-48
2022/09/26 12:03:59;;;;;;;6.05;4.22;;;;;;;11.68;97.00;99753.22;4987637;28;20063;-46
2022/09/26 12:06:40;;;;;;;5.35;4.55;;;;;;;11.68;97.73;99747.03;4989195;28;20475;-46